Time,TemperatureF,DewpointF,PressureIn,WindDirection,WindDirectionDegrees,WindSpeedMPH,WindSpeedGustMPH,Humidity,HourlyPrecipIn,Conditions,Clouds,dailyrainin,SoftwareType,DateUTC
2013-09-02 00:03:00,55.6,49.9,29.87,ENE,68,0.7,2.0,81,0.00,,,0.00,WUHU216HW,2013-09-02 07:03:00,
2013-09-02 00:08:00,55.6,49.9,29.87,ENE,68,0.0,1.8,81,0.00,,,0.00,WUHU216HW,2013-09-02 07:08:00,
2013-09-02 00:13:00,55.6,49.9,29.87,ENE,68,0.0,0.7,81,0.00,,,0.00,WUHU216HW,2013-09-02 07:13:00,
2013-09-02 00:18:00,55.6,49.9,29.87,ENE,68,0.0,0.0,81,0.00,,,0.00,WUHU216HW,2013-09-02 07:18:00,
2013-09-02 00:23:00,55.4,49.3,29.87,ENE,68,0.0,0.0,80,0.00,,,0.00,WUHU216HW,2013-09-02 07:23:00,
2013-09-02 00:28:00,55.3,49.1,29.87,ENE,68,0.7,0.7,80,0.00,,,0.00,WUHU216HW,2013-09-02 07:28:00,
2013-09-02 00:33:00,55.3,49.5,29.87,ENE,68,0.4,0.7,81,0.00,,,0.00,WUHU216HW,2013-09-02 07:33:00,
2013-09-02 00:38:00,55.1,49.3,29.87,ENE,68,0.0,0.7,81,0.00,,,0.00,WUHU216HW,2013-09-02 07:38:00,
2013-09-02 00:43:00,55.1,49.3,29.87,ENE,68,0.0,0.4,81,0.00,,,0.00,WUHU216HW,2013-09-02 07:43:00,
2013-09-02 00:48:00,54.9,49.1,29.88,SE,135,0.4,0.7,81,0.00,,,0.00,WUHU216HW,2013-09-02 07:48:00,
2013-09-02 00:53:00,54.9,49.1,29.88,SW,225,0.4,0.7,81,0.00,,,0.00,WUHU216HW,2013-09-02 07:53:00,
2013-09-02 00:58:00,54.7,49.0,29.88,WSW,248,1.8,1.8,81,0.00,,,0.00,WUHU216HW,2013-09-02 07:58:00,
2013-09-02 01:03:00,54.7,49.3,29.88,SW,225,1.1,1.8,82,0.00,,,0.00,WUHU216HW,2013-09-02 08:03:00,
2013-09-02 01:08:00,54.7,49.3,29.88,WSW,248,0.2,1.6,82,0.00,,,0.00,WUHU216HW,2013-09-02 08:08:00,
2013-09-02 01:13:00,54.7,49.3,29.88,SSW,203,0.7,0.7,82,0.00,,,0.00,WUHU216HW,2013-09-02 08:13:00,
2013-09-02 01:18:00,54.7,49.3,29.89,SE,135,0.9,1.6,82,0.00,,,0.00,WUHU216HW,2013-09-02 08:18:00,
2013-09-02 01:23:00,54.9,49.5,29.88,SW,225,0.7,1.6,82,0.00,,,0.00,WUHU216HW,2013-09-02 08:23:00,
2013-09-02 01:28:00,54.9,49.5,29.89,SW,225,0.0,1.1,82,0.00,,,0.00,WUHU216HW,2013-09-02 08:28:00,
2013-09-02 01:33:00,54.7,49.3,29.89,WSW,248,1.3,1.3,82,0.00,,,0.00,WUHU216HW,2013-09-02 08:33:00,
2013-09-02 01:38:00,54.7,49.3,29.89,SE,135,0.4,1.3,82,0.00,,,0.00,WUHU216HW,2013-09-02 08:38:00,
2013-09-02 01:43:00,54.5,49.1,29.89,East,90,0.7,1.1,82,0.00,,,0.00,WUHU216HW,2013-09-02 08:43:00,
2013-09-02 01:48:00,54.4,49.3,29.89,ENE,68,2.2,2.5,83,0.00,,,0.00,WUHU216HW,2013-09-02 08:48:00,
2013-09-02 01:53:00,54.4,49.3,29.89,SE,135,1.6,2.5,83,0.00,,,0.00,WUHU216HW,2013-09-02 08:53:00,
2013-09-02 01:58:00,54.4,49.3,29.89,ENE,68,0.0,2.2,83,0.00,,,0.00,WUHU216HW,2013-09-02 08:58:00,
2013-09-02 02:03:00,54.4,49.3,29.89,ESE,113,0.4,1.3,83,0.00,,,0.00,WUHU216HW,2013-09-02 09:03:00,
2013-09-02 02:08:00,54.4,49.3,29.89,ESE,113,0.9,1.3,83,0.00,,,0.00,WUHU216HW,2013-09-02 09:08:00,
2013-09-02 02:13:00,54.4,49.3,29.89,ENE,68,0.9,1.8,83,0.00,,,0.00,WUHU216HW,2013-09-02 09:13:00,
2013-09-02 02:18:00,54.2,49.4,29.88,ENE,68,2.5,2.5,84,0.00,,,0.00,WUHU216HW,2013-09-02 09:18:00,
2013-09-02 02:23:00,54.4,49.6,29.88,SE,135,1.6,2.5,84,0.00,,,0.00,WUHU216HW,2013-09-02 09:23:00,
2013-09-02 02:28:00,54.2,49.4,29.88,SSE,158,0.2,2.0,84,0.00,,,0.00,WUHU216HW,2013-09-02 09:28:00,
2013-09-02 02:33:00,54.0,49.2,29.88,ESE,113,0.7,1.6,84,0.00,,,0.00,WUHU216HW,2013-09-02 09:33:00,
2013-09-02 02:38:00,53.8,49.1,29.88,East,90,0.9,1.6,84,0.00,,,0.00,WUHU216HW,2013-09-02 09:38:00,
2013-09-02 02:43:00,53.8,49.1,29.88,NE,45,3.1,3.1,84,0.00,,,0.00,WUHU216HW,2013-09-02 09:43:00,
2013-09-02 02:48:00,53.8,49.1,29.88,ENE,68,1.1,3.4,84,0.00,,,0.00,WUHU216HW,2013-09-02 09:48:00,
2013-09-02 02:53:00,53.6,49.0,29.88,NE,45,2.9,3.4,84,0.00,,,0.00,WUHU216HW,2013-09-02 09:53:00,
2013-09-02 02:58:00,53.6,49.2,29.88,NE,45,0.9,3.4,85,0.00,,,0.00,WUHU216HW,2013-09-02 09:58:00,
2013-09-02 03:03:00,53.8,49.4,29.88,ENE,68,0.0,1.8,85,0.00,,,0.00,WUHU216HW,2013-09-02 10:03:00,
2013-09-02 03:08:00,53.6,49.2,29.88,NE,45,0.9,2.5,85,0.00,,,0.00,WUHU216HW,2013-09-02 10:08:00,
2013-09-02 03:13:00,53.6,49.2,29.88,NE,45,0.0,2.5,85,0.00,,,0.00,WUHU216HW,2013-09-02 10:13:00,
2013-09-02 03:18:00,53.6,49.2,29.88,SSW,203,0.0,0.7,85,0.00,,,0.00,WUHU216HW,2013-09-02 10:18:00,
2013-09-02 03:23:00,53.8,49.4,29.88,SE,135,0.4,0.4,85,0.00,,,0.00,WUHU216HW,2013-09-02 10:23:00,
2013-09-02 03:28:00,53.6,49.2,29.88,South,180,0.4,1.1,85,0.00,,,0.00,WUHU216HW,2013-09-02 10:28:00,
2013-09-02 03:33:00,53.6,49.2,29.88,ENE,68,2.0,2.0,85,0.00,,,0.00,WUHU216HW,2013-09-02 10:33:00,
2013-09-02 03:38:00,53.6,49.2,29.88,NE,45,0.0,2.0,85,0.00,,,0.00,WUHU216HW,2013-09-02 10:38:00,
2013-09-02 03:43:00,53.6,49.2,29.88,WNW,293,1.3,2.0,85,0.00,,,0.00,WUHU216HW,2013-09-02 10:43:00,
2013-09-02 03:48:00,53.6,49.2,29.88,SSW,203,0.0,2.0,85,0.00,,,0.00,WUHU216HW,2013-09-02 10:48:00,
2013-09-02 03:53:00,53.6,49.2,29.88,ESE,113,1.1,1.1,85,0.00,,,0.00,WUHU216HW,2013-09-02 10:53:00,
2013-09-02 03:58:00,53.6,49.5,29.87,NE,45,2.5,2.9,86,0.00,,,0.00,WUHU216HW,2013-09-02 10:58:00,
2013-09-02 04:03:00,53.6,49.5,29.87,NE,45,0.4,2.9,86,0.00,,,0.00,WUHU216HW,2013-09-02 11:03:00,
2013-09-02 04:08:00,53.6,49.5,29.88,WSW,248,1.3,2.7,86,0.00,,,0.00,WUHU216HW,2013-09-02 11:08:00,
2013-09-02 04:13:00,53.8,49.7,29.88,SE,135,1.8,2.0,86,0.00,,,0.00,WUHU216HW,2013-09-02 11:13:00,
2013-09-02 04:18:00,53.8,49.7,29.88,SW,225,0.7,1.8,86,0.00,,,0.00,WUHU216HW,2013-09-02 11:18:00,
2013-09-02 04:23:00,54.0,49.9,29.88,South,180,0.4,1.3,86,0.00,,,0.00,WUHU216HW,2013-09-02 11:23:00,
2013-09-02 04:28:00,54.0,49.9,29.88,SE,135,0.0,0.9,86,0.00,,,0.00,WUHU216HW,2013-09-02 11:28:00,
2013-09-02 04:33:00,54.0,49.9,29.88,South,180,0.0,0.7,86,0.00,,,0.00,WUHU216HW,2013-09-02 11:33:00,
2013-09-02 04:38:00,54.2,50.0,29.88,SW,225,0.0,1.1,86,0.00,,,0.00,WUHU216HW,2013-09-02 11:38:00,
2013-09-02 04:43:00,54.4,50.2,29.88,South,180,1.1,1.1,86,0.00,,,0.00,WUHU216HW,2013-09-02 11:43:00,
2013-09-02 04:48:00,54.4,50.2,29.88,SW,225,0.0,1.1,86,0.00,,,0.00,WUHU216HW,2013-09-02 11:48:00,
2013-09-02 04:53:00,54.4,50.2,29.88,ENE,68,0.7,0.9,86,0.00,,,0.00,WUHU216HW,2013-09-02 11:53:00,
2013-09-02 04:58:00,54.5,50.4,29.88,WSW,248,0.0,0.9,86,0.00,,,0.00,WUHU216HW,2013-09-02 11:58:00,
2013-09-02 05:03:00,54.5,50.4,29.88,WSW,248,0.0,0.9,86,0.00,,,0.00,WUHU216HW,2013-09-02 12:03:00,
2013-09-02 05:08:00,54.7,50.6,29.88,North,0,0.4,0.4,86,0.00,,,0.00,WUHU216HW,2013-09-02 12:08:00,
2013-09-02 05:13:00,54.7,50.6,29.88,West,270,1.1,1.1,86,0.00,,,0.00,WUHU216HW,2013-09-02 12:13:00,
2013-09-02 05:18:00,54.7,50.6,29.88,ESE,113,1.1,1.3,86,0.00,,,0.00,WUHU216HW,2013-09-02 12:18:00,
2013-09-02 05:23:00,54.9,50.8,29.88,South,180,0.4,1.3,86,0.00,,,0.00,WUHU216HW,2013-09-02 12:23:00,
2013-09-02 05:28:00,54.9,50.8,29.88,South,180,0.0,1.3,86,0.00,,,0.00,WUHU216HW,2013-09-02 12:28:00,
2013-09-02 05:33:00,54.9,50.8,29.88,SSE,158,0.0,0.2,86,0.00,,,0.00,WUHU216HW,2013-09-02 12:33:00,
2013-09-02 05:38:00,54.9,50.8,29.89,SSW,203,0.7,1.6,86,0.00,,,0.00,WUHU216HW,2013-09-02 12:38:00,
2013-09-02 05:43:00,55.1,51.0,29.90,WSW,248,0.7,1.6,86,0.00,,,0.00,WUHU216HW,2013-09-02 12:43:00,
2013-09-02 05:48:00,55.1,51.0,29.89,ESE,113,0.9,1.3,86,0.00,,,0.00,WUHU216HW,2013-09-02 12:48:00,
2013-09-02 05:53:00,55.1,51.0,29.88,NE,45,3.4,3.4,86,0.00,,,0.00,WUHU216HW,2013-09-02 12:53:00,
2013-09-02 05:58:00,55.1,51.0,29.90,ENE,68,0.0,3.4,86,0.00,,,0.00,WUHU216HW,2013-09-02 12:58:00,
2013-09-02 06:03:00,55.1,51.0,29.90,North,0,2.0,2.2,86,0.00,,,0.00,WUHU216HW,2013-09-02 13:03:00,
2013-09-02 06:08:00,55.3,51.1,29.89,NE,45,3.4,3.4,86,0.00,,,0.00,WUHU216HW,2013-09-02 13:08:00,
2013-09-02 06:13:00,55.1,51.0,29.89,NE,45,2.5,4.7,86,0.00,,,0.00,WUHU216HW,2013-09-02 13:13:00,
2013-09-02 06:18:00,55.1,51.0,29.88,NE,45,0.0,4.7,86,0.00,,,0.00,WUHU216HW,2013-09-02 13:18:00,
2013-09-02 06:23:00,55.3,51.1,29.89,SE,135,2.0,2.5,86,0.00,,,0.00,WUHU216HW,2013-09-02 13:23:00,
2013-09-02 06:28:00,55.4,51.3,29.89,NE,45,0.7,2.2,86,0.00,,,0.00,WUHU216HW,2013-09-02 13:28:00,
2013-09-02 06:33:00,55.4,51.3,29.89,NE,45,1.3,2.5,86,0.00,,,0.00,WUHU216HW,2013-09-02 13:33:00,
2013-09-02 06:38:00,55.4,51.3,29.89,NE,45,1.8,3.1,86,0.00,,,0.00,WUHU216HW,2013-09-02 13:38:00,
2013-09-02 06:43:00,55.6,51.5,29.89,East,90,2.2,3.1,86,0.00,,,0.00,WUHU216HW,2013-09-02 13:43:00,
2013-09-02 06:49:00,55.6,51.5,29.89,ENE,68,1.8,2.5,86,0.00,,,0.00,WUHU216HW,2013-09-02 13:49:00,
2013-09-02 06:54:00,55.8,51.7,29.90,ENE,68,1.3,2.0,86,0.01,,,0.00,WUHU216HW,2013-09-02 13:54:00,
2013-09-02 06:59:00,55.8,51.7,29.90,WSW,248,0.4,2.0,86,0.01,,,0.01,WUHU216HW,2013-09-02 13:59:00,
2013-09-02 07:04:00,55.8,51.7,29.90,ESE,113,0.0,1.8,86,0.01,,,0.01,WUHU216HW,2013-09-02 14:04:00,
2013-09-02 07:09:00,56.0,51.9,29.90,SSW,203,0.4,0.9,86,0.01,,,0.01,WUHU216HW,2013-09-02 14:09:00,
2013-09-02 07:14:00,56.0,52.1,29.90,ENE,68,0.4,2.0,87,0.01,,,0.01,WUHU216HW,2013-09-02 14:14:00,
2013-09-02 07:19:00,56.2,52.3,29.90,SSW,203,0.0,2.0,87,0.01,,,0.01,WUHU216HW,2013-09-02 14:19:00,
2013-09-02 07:24:00,56.3,52.5,29.90,ENE,68,2.0,2.0,87,0.01,,,0.01,WUHU216HW,2013-09-02 14:24:00,
2013-09-02 07:29:00,56.3,52.5,29.90,NE,45,2.5,2.5,87,0.01,,,0.01,WUHU216HW,2013-09-02 14:29:00,
2013-09-02 07:34:00,56.5,53.0,29.90,ENE,68,2.5,3.4,88,0.01,,,0.01,WUHU216HW,2013-09-02 14:34:00,
2013-09-02 07:39:00,56.7,53.2,29.90,ENE,68,1.8,3.4,88,0.01,,,0.01,WUHU216HW,2013-09-02 14:39:00,
2013-09-02 07:44:00,56.9,53.4,29.90,NE,45,0.7,2.5,88,0.01,,,0.01,WUHU216HW,2013-09-02 14:44:00,
2013-09-02 07:49:00,57.2,53.7,29.90,NE,45,0.0,1.3,88,0.01,,,0.01,WUHU216HW,2013-09-02 14:49:00,
2013-09-02 07:54:00,57.4,53.9,29.90,NE,45,2.5,2.5,88,0.00,,,0.01,WUHU216HW,2013-09-02 14:54:00,
2013-09-02 07:59:00,57.6,54.1,29.90,NE,45,2.2,2.5,88,0.00,,,0.01,WUHU216HW,2013-09-02 14:59:00,
2013-09-02 08:04:00,57.8,54.3,29.90,NE,45,2.5,3.4,88,0.00,,,0.01,WUHU216HW,2013-09-02 15:04:00,
2013-09-02 08:09:00,58.0,54.5,29.90,NE,45,3.4,3.6,88,0.00,,,0.01,WUHU216HW,2013-09-02 15:09:00,
2013-09-02 08:14:00,58.0,54.5,29.90,North,0,1.8,3.6,88,0.00,,,0.01,WUHU216HW,2013-09-02 15:14:00,
2013-09-02 08:19:00,58.1,54.6,29.90,NE,45,0.2,2.7,88,0.00,,,0.01,WUHU216HW,2013-09-02 15:19:00,
2013-09-02 08:24:00,58.5,55.3,29.90,NE,45,0.4,1.3,89,0.00,,,0.01,WUHU216HW,2013-09-02 15:24:00,
2013-09-02 08:29:00,58.7,55.4,29.90,NE,45,0.0,0.7,89,0.00,,,0.01,WUHU216HW,2013-09-02 15:29:00,
2013-09-02 08:34:00,59.0,55.8,29.90,NNW,338,0.7,0.7,89,0.00,,,0.01,WUHU216HW,2013-09-02 15:34:00,
2013-09-02 08:39:00,59.2,56.0,29.90,East,90,0.9,0.9,89,0.00,,,0.01,WUHU216HW,2013-09-02 15:39:00,
2013-09-02 08:44:00,59.4,55.9,29.90,WSW,248,1.8,1.8,88,0.00,,,0.01,WUHU216HW,2013-09-02 15:44:00,
2013-09-02 08:49:00,59.6,56.1,29.90,WSW,248,2.5,2.5,88,0.00,,,0.01,WUHU216HW,2013-09-02 15:49:00,
2013-09-02 08:54:00,59.8,56.3,29.91,WSW,248,2.7,3.4,88,0.00,,,0.01,WUHU216HW,2013-09-02 15:54:00,
2013-09-02 08:59:00,59.9,56.4,29.91,SE,135,0.7,3.8,88,0.00,,,0.01,WUHU216HW,2013-09-02 15:59:00,
2013-09-02 09:04:00,60.1,56.6,29.91,SW,225,0.0,3.8,88,0.00,,,0.01,WUHU216HW,2013-09-02 16:04:00,
2013-09-02 09:09:00,60.1,56.3,29.91,SSE,158,0.0,1.6,87,0.00,,,0.01,WUHU216HW,2013-09-02 16:09:00,
2013-09-02 09:14:00,60.5,56.6,29.91,South,180,0.2,1.6,87,0.00,,,0.01,WUHU216HW,2013-09-02 16:14:00,
2013-09-02 09:19:00,60.5,56.6,29.91,WSW,248,3.6,3.6,87,0.00,,,0.01,WUHU216HW,2013-09-02 16:19:00,
2013-09-02 09:24:00,60.8,57.0,29.92,ESE,113,0.9,3.6,87,0.00,,,0.01,WUHU216HW,2013-09-02 16:24:00,
2013-09-02 09:29:00,61.0,57.2,29.91,South,180,0.7,2.9,87,0.00,,,0.01,WUHU216HW,2013-09-02 16:29:00,
2013-09-02 09:34:00,61.2,57.3,29.91,WSW,248,1.1,2.9,87,0.00,,,0.01,WUHU216HW,2013-09-02 16:34:00,
2013-09-02 09:39:00,61.4,57.5,29.91,ENE,68,1.8,1.8,87,0.00,,,0.01,WUHU216HW,2013-09-02 16:39:00,
2013-09-02 09:44:00,61.9,57.7,29.91,ENE,68,0.4,1.8,86,0.00,,,0.01,WUHU216HW,2013-09-02 16:44:00,
2013-09-02 09:49:00,62.1,57.9,29.91,NNE,23,0.2,1.3,86,0.00,,,0.01,WUHU216HW,2013-09-02 16:49:00,
2013-09-02 09:54:00,62.3,57.7,29.91,North,0,0.2,1.1,85,0.00,,,0.01,WUHU216HW,2013-09-02 16:54:00,
2013-09-02 09:59:00,62.5,57.9,29.91,NE,45,0.2,1.1,85,0.00,,,0.01,WUHU216HW,2013-09-02 16:59:00,
2013-09-02 10:04:00,62.8,58.2,29.91,WNW,293,0.9,1.8,85,0.00,,,0.01,WUHU216HW,2013-09-02 17:04:00,
2013-09-02 10:09:00,62.8,58.2,29.91,WNW,293,0.0,1.8,85,0.00,,,0.01,WUHU216HW,2013-09-02 17:09:00,
2013-09-02 10:14:00,63.2,58.2,29.91,ENE,68,1.8,1.8,84,0.00,,,0.01,WUHU216HW,2013-09-02 17:14:00,
2013-09-02 10:19:00,63.4,58.4,29.91,NE,45,1.3,1.8,84,0.00,,,0.01,WUHU216HW,2013-09-02 17:19:00,
2013-09-02 10:24:00,63.7,58.8,29.91,NE,45,0.0,1.3,84,0.00,,,0.01,WUHU216HW,2013-09-02 17:24:00,
2013-09-02 10:29:00,64.4,59.5,29.91,SW,225,2.5,2.5,84,0.00,,,0.01,WUHU216HW,2013-09-02 17:29:00,
2013-09-02 10:34:00,64.8,60.2,29.91,WSW,248,2.5,4.7,85,0.00,,,0.01,WUHU216HW,2013-09-02 17:34:00,
2013-09-02 10:39:00,64.8,59.9,29.91,SW,225,1.8,4.7,84,0.00,,,0.01,WUHU216HW,2013-09-02 17:39:00,
2013-09-02 10:44:00,65.0,59.7,29.91,WSW,248,2.5,2.9,83,0.00,,,0.01,WUHU216HW,2013-09-02 17:44:00,
2013-09-02 10:49:00,65.0,59.7,29.91,SSW,203,2.2,2.9,83,0.00,,,0.01,WUHU216HW,2013-09-02 17:49:00,
2013-09-02 10:54:00,65.0,59.3,29.91,SW,225,1.3,3.6,82,0.00,,,0.01,WUHU216HW,2013-09-02 17:54:00,
2013-09-02 10:59:00,65.2,59.5,29.91,SSW,203,0.4,3.6,82,0.00,,,0.01,WUHU216HW,2013-09-02 17:59:00,
2013-09-02 11:04:00,65.2,59.5,29.91,WSW,248,4.7,4.7,82,0.00,,,0.01,WUHU216HW,2013-09-02 18:04:00,
2013-09-02 11:09:00,65.5,59.6,29.91,SW,225,0.9,4.7,81,0.00,,,0.01,WUHU216HW,2013-09-02 18:09:00,
2013-09-02 11:14:00,66.1,60.1,29.91,SW,225,2.9,3.4,81,0.00,,,0.01,WUHU216HW,2013-09-02 18:14:00,
2013-09-02 11:19:00,66.6,60.3,29.91,WSW,248,2.5,3.4,80,0.00,,,0.01,WUHU216HW,2013-09-02 18:19:00,
2013-09-02 11:24:00,66.8,60.5,29.91,WSW,248,1.1,2.7,80,0.00,,,0.01,WUHU216HW,2013-09-02 18:24:00,
2013-09-02 11:29:00,67.0,60.3,29.91,WSW,248,2.5,2.7,79,0.00,,,0.01,WUHU216HW,2013-09-02 18:29:00,
2013-09-02 11:34:00,67.3,60.7,29.91,SW,225,4.0,4.5,79,0.00,,,0.01,WUHU216HW,2013-09-02 18:34:00,
2013-09-02 11:39:00,67.3,60.3,29.91,SW,225,4.7,4.9,78,0.00,,,0.01,WUHU216HW,2013-09-02 18:39:00,
2013-09-02 11:44:00,67.3,59.9,29.91,SW,225,2.5,4.9,77,0.00,,,0.01,WUHU216HW,2013-09-02 18:44:00,
2013-09-02 11:49:00,67.5,60.0,29.91,SW,225,2.7,3.4,77,0.00,,,0.01,WUHU216HW,2013-09-02 18:49:00,
2013-09-02 11:54:00,67.7,60.2,29.91,West,270,2.0,3.6,77,0.00,,,0.01,WUHU216HW,2013-09-02 18:54:00,
2013-09-02 11:59:00,68.0,60.2,29.91,SSW,203,2.2,3.6,76,0.00,,,0.01,WUHU216HW,2013-09-02 18:59:00,
2013-09-02 12:04:00,68.6,60.8,29.91,SW,225,2.0,2.9,76,0.00,,,0.01,WUHU216HW,2013-09-02 19:04:00,
2013-09-02 12:09:00,68.9,60.7,29.91,SW,225,2.5,2.7,75,0.00,,,0.01,WUHU216HW,2013-09-02 19:09:00,
2013-09-02 12:14:00,69.3,61.0,29.91,SW,225,3.6,4.3,75,0.00,,,0.01,WUHU216HW,2013-09-02 19:14:00,
2013-09-02 12:19:00,69.5,60.8,29.91,WSW,248,4.0,4.7,74,0.00,,,0.01,WUHU216HW,2013-09-02 19:19:00,
2013-09-02 12:24:00,69.7,60.9,29.91,SSW,203,4.0,4.7,74,0.00,,,0.01,WUHU216HW,2013-09-02 19:24:00,
2013-09-02 12:29:00,69.8,60.8,29.91,SW,225,2.2,4.3,73,0.00,,,0.01,WUHU216HW,2013-09-02 19:29:00,
2013-09-02 12:34:00,70.4,60.8,29.91,WSW,248,3.8,3.8,72,0.00,,,0.01,WUHU216HW,2013-09-02 19:34:00,
2013-09-02 12:39:00,71.1,61.6,29.91,WSW,248,3.4,3.8,72,0.00,,,0.01,WUHU216HW,2013-09-02 19:39:00,
2013-09-02 12:44:00,71.6,61.7,29.91,SW,225,3.4,3.8,71,0.00,,,0.01,WUHU216HW,2013-09-02 19:44:00,
2013-09-02 12:49:00,72.2,62.3,29.91,WSW,248,5.4,5.4,71,0.00,,,0.01,WUHU216HW,2013-09-02 19:49:00,
2013-09-02 12:54:00,72.4,62.5,29.90,SW,225,4.0,5.4,71,0.00,,,0.01,WUHU216HW,2013-09-02 19:54:00,
2013-09-02 12:59:00,72.7,62.5,29.90,South,180,2.5,4.3,70,0.00,,,0.01,WUHU216HW,2013-09-02 19:59:00,
2013-09-02 13:04:00,72.7,62.0,29.90,SSW,203,2.0,4.0,69,0.00,,,0.01,WUHU216HW,2013-09-02 20:04:00,
2013-09-02 13:09:00,72.5,61.8,29.90,WSW,248,5.8,5.8,69,0.00,,,0.01,WUHU216HW,2013-09-02 20:09:00,
2013-09-02 13:14:00,72.5,61.8,29.90,SSW,203,2.2,5.8,69,0.00,,,0.01,WUHU216HW,2013-09-02 20:14:00,
2013-09-02 13:19:00,72.7,61.6,29.90,WSW,248,1.8,5.8,68,0.00,,,0.01,WUHU216HW,2013-09-02 20:19:00,
2013-09-02 13:24:00,72.7,61.6,29.90,WSW,248,3.4,3.4,68,0.00,,,0.01,WUHU216HW,2013-09-02 20:24:00,
2013-09-02 13:29:00,72.9,61.7,29.90,SW,225,3.4,3.8,68,0.00,,,0.01,WUHU216HW,2013-09-02 20:29:00,
2013-09-02 13:34:00,73.3,61.7,29.90,SSW,203,1.8,4.0,67,0.00,,,0.01,WUHU216HW,2013-09-02 20:34:00,
2013-09-02 13:39:00,73.4,61.4,29.90,WSW,248,4.0,5.8,66,0.00,,,0.01,WUHU216HW,2013-09-02 20:39:00,
2013-09-02 13:44:00,73.6,61.6,29.90,WSW,248,4.9,6.5,66,0.00,,,0.01,WUHU216HW,2013-09-02 20:44:00,
2013-09-02 13:49:00,73.8,61.8,29.90,WSW,248,3.6,6.5,66,0.00,,,0.01,WUHU216HW,2013-09-02 20:49:00,
2013-09-02 13:54:00,73.8,61.8,29.91,SW,225,6.9,6.9,66,0.00,,,0.01,WUHU216HW,2013-09-02 20:54:00,
2013-09-02 13:59:00,73.8,61.8,29.90,West,270,3.8,6.9,66,0.00,,,0.01,WUHU216HW,2013-09-02 20:59:00,
2013-09-02 14:04:00,73.8,61.8,29.90,West,270,2.7,5.4,66,0.00,,,0.01,WUHU216HW,2013-09-02 21:04:00,
2013-09-02 14:09:00,73.8,61.3,29.91,WSW,248,4.0,4.7,65,0.00,,,0.01,WUHU216HW,2013-09-02 21:09:00,
2013-09-02 14:14:00,73.8,61.8,29.90,West,270,3.6,4.9,66,0.00,,,0.01,WUHU216HW,2013-09-02 21:14:00,
2013-09-02 14:19:00,73.6,61.6,29.90,SW,225,1.6,4.9,66,0.00,,,0.01,WUHU216HW,2013-09-02 21:19:00,
2013-09-02 14:24:00,73.6,61.6,29.90,WSW,248,2.5,4.5,66,0.00,,,0.01,WUHU216HW,2013-09-02 21:24:00,
2013-09-02 14:29:00,73.4,61.4,29.90,SSW,203,1.3,4.5,66,0.00,,,0.01,WUHU216HW,2013-09-02 21:29:00,
2013-09-02 14:34:00,73.4,61.4,29.90,SW,225,4.5,5.1,66,0.00,,,0.01,WUHU216HW,2013-09-02 21:34:00,
2013-09-02 14:39:00,73.3,61.2,29.90,SSW,203,2.9,5.1,66,0.00,,,0.01,WUHU216HW,2013-09-02 21:39:00,
2013-09-02 14:44:00,73.3,61.2,29.90,WSW,248,3.1,4.3,66,0.00,,,0.01,WUHU216HW,2013-09-02 21:44:00,
2013-09-02 14:49:00,73.1,61.0,29.90,SSW,203,3.8,4.5,66,0.00,,,0.01,WUHU216HW,2013-09-02 21:49:00,
2013-09-02 14:54:00,73.1,61.0,29.91,SW,225,4.5,4.7,66,0.00,,,0.01,WUHU216HW,2013-09-02 21:54:00,
2013-09-02 14:59:00,73.1,61.0,29.90,SSW,203,2.7,4.7,66,0.00,,,0.01,WUHU216HW,2013-09-02 21:59:00,
2013-09-02 15:04:00,73.3,61.2,29.90,WSW,248,4.0,4.0,66,0.00,,,0.01,WUHU216HW,2013-09-02 22:04:00,
2013-09-02 15:09:00,73.4,61.4,29.90,SW,225,4.7,4.7,66,0.00,,,0.01,WUHU216HW,2013-09-02 22:09:00,
2013-09-02 15:14:00,73.6,61.1,29.90,WSW,248,4.3,5.4,65,0.00,,,0.01,WUHU216HW,2013-09-02 22:14:00,
2013-09-02 15:19:00,73.8,61.3,29.90,WSW,248,4.0,5.4,65,0.00,,,0.01,WUHU216HW,2013-09-02 22:19:00,
2013-09-02 15:24:00,74.2,61.7,29.90,WSW,248,4.0,4.7,65,0.00,,,0.01,WUHU216HW,2013-09-02 22:24:00,
2013-09-02 15:29:00,74.5,61.6,29.90,SW,225,4.3,5.4,64,0.00,,,0.01,WUHU216HW,2013-09-02 22:29:00,
2013-09-02 15:34:00,74.3,61.4,29.90,SW,225,2.7,5.4,64,0.00,,,0.01,WUHU216HW,2013-09-02 22:34:00,
2013-09-02 15:39:00,74.3,61.4,29.90,SW,225,4.3,5.6,64,0.00,,,0.01,WUHU216HW,2013-09-02 22:39:00,
2013-09-02 15:44:00,74.2,61.2,29.90,WSW,248,5.8,6.5,64,0.00,,,0.01,WUHU216HW,2013-09-02 22:44:00,
2013-09-02 15:49:00,73.8,60.9,29.90,SW,225,2.9,6.5,64,0.00,,,0.01,WUHU216HW,2013-09-02 22:49:00,
2013-09-02 15:54:00,73.6,60.7,29.90,West,270,2.5,4.7,64,0.00,,,0.01,WUHU216HW,2013-09-02 22:54:00,
2013-09-02 15:59:00,73.3,60.3,29.90,WSW,248,4.0,4.0,64,0.00,,,0.01,WUHU216HW,2013-09-02 22:59:00,
2013-09-02 16:04:00,73.3,60.3,29.90,West,270,3.8,4.5,64,0.00,,,0.01,WUHU216HW,2013-09-02 23:04:00,
2013-09-02 16:09:00,73.3,60.3,29.90,WSW,248,2.7,4.5,64,0.00,,,0.01,WUHU216HW,2013-09-02 23:09:00,
2013-09-02 16:14:00,73.4,60.5,29.89,West,270,4.0,4.5,64,0.00,,,0.01,WUHU216HW,2013-09-02 23:14:00,
2013-09-02 16:19:00,73.3,60.3,29.89,West,270,2.5,4.0,64,0.00,,,0.01,WUHU216HW,2013-09-02 23:19:00,
2013-09-02 16:24:00,73.4,60.5,29.89,West,270,3.6,4.5,64,0.00,,,0.01,WUHU216HW,2013-09-02 23:24:00,
2013-09-02 16:29:00,73.4,60.5,29.89,WSW,248,4.0,4.5,64,0.00,,,0.01,WUHU216HW,2013-09-02 23:29:00,
2013-09-02 16:34:00,73.3,60.3,29.89,West,270,2.7,4.0,64,0.00,,,0.01,WUHU216HW,2013-09-02 23:34:00,
2013-09-02 16:39:00,73.1,60.1,29.89,SW,225,2.2,4.5,64,0.00,,,0.01,WUHU216HW,2013-09-02 23:39:00,
2013-09-02 16:44:00,73.1,60.1,29.89,WSW,248,3.4,4.5,64,0.00,,,0.01,WUHU216HW,2013-09-02 23:44:00,
2013-09-02 16:49:00,73.1,60.6,29.89,WSW,248,2.0,3.4,65,0.00,,,0.01,WUHU216HW,2013-09-02 23:49:00,
2013-09-02 16:54:00,73.1,60.6,29.89,SW,225,1.1,2.7,65,0.00,,,0.01,WUHU216HW,2013-09-02 23:54:00,
2013-09-02 16:59:00,73.3,60.3,29.89,SW,225,1.1,2.5,64,0.00,,,0.01,WUHU216HW,2013-09-02 23:59:00,
2013-09-02 17:04:00,73.4,60.5,29.89,WSW,248,1.6,1.6,64,0.00,,,0.01,WUHU216HW,2013-09-03 00:04:00,
2013-09-02 17:09:00,73.4,60.5,29.89,WSW,248,0.0,1.8,64,0.00,,,0.01,WUHU216HW,2013-09-03 00:09:00,
2013-09-02 17:14:00,73.4,60.5,29.89,WSW,248,0.0,1.8,64,0.00,,,0.01,WUHU216HW,2013-09-03 00:14:00,
2013-09-02 17:19:00,73.4,60.5,29.89,SSE,158,1.6,1.6,64,0.00,,,0.01,WUHU216HW,2013-09-03 00:19:00,
2013-09-02 17:24:00,73.4,60.5,29.89,WSW,248,0.0,1.6,64,0.00,,,0.01,WUHU216HW,2013-09-03 00:24:00,
2013-09-02 17:30:00,73.8,60.9,29.89,SW,225,1.1,1.3,64,0.00,,,0.01,WUHU216HW,2013-09-03 00:30:00,
2013-09-02 17:35:00,74.0,61.0,29.89,WSW,248,2.5,2.5,64,0.00,,,0.01,WUHU216HW,2013-09-03 00:35:00,
2013-09-02 17:40:00,74.2,61.2,29.89,WSW,248,4.5,4.9,64,0.00,,,0.01,WUHU216HW,2013-09-03 00:40:00,
2013-09-02 17:45:00,73.8,60.4,29.89,West,270,2.5,4.9,63,0.00,,,0.01,WUHU216HW,2013-09-03 00:45:00,
2013-09-02 17:50:00,73.4,60.0,29.89,WSW,248,3.6,3.8,63,0.00,,,0.01,WUHU216HW,2013-09-03 00:50:00,
2013-09-02 17:55:00,73.1,59.7,29.89,West,270,1.8,6.9,63,0.00,,,0.01,WUHU216HW,2013-09-03 00:55:00,
2013-09-02 18:00:00,72.5,59.2,29.89,West,270,1.8,6.9,63,0.00,,,0.01,WUHU216HW,2013-09-03 01:00:00,
2013-09-02 18:05:00,72.4,59.1,29.90,South,180,2.5,4.7,63,0.00,,,0.01,WUHU216HW,2013-09-03 01:05:00,
2013-09-02 18:10:00,72.0,58.7,29.90,NE,45,1.3,5.1,63,0.00,,,0.01,WUHU216HW,2013-09-03 01:10:00,
2013-09-02 18:15:00,71.8,58.5,29.90,SSE,158,1.3,6.0,63,0.00,,,0.01,WUHU216HW,2013-09-03 01:15:00,
2013-09-02 18:20:00,72.0,59.1,29.90,SSW,203,3.4,6.3,64,0.00,,,0.01,WUHU216HW,2013-09-03 01:20:00,
2013-09-02 18:25:00,72.5,59.7,29.90,SSE,158,3.1,6.3,64,0.00,,,0.01,WUHU216HW,2013-09-03 01:25:00,
2013-09-02 18:30:00,73.1,59.7,29.90,ESE,113,1.3,4.9,63,0.00,,,0.01,WUHU216HW,2013-09-03 01:30:00,
2013-09-02 18:35:00,73.6,60.2,29.90,West,270,4.0,4.0,63,0.00,,,0.01,WUHU216HW,2013-09-03 01:35:00,
2013-09-02 18:40:00,74.0,60.1,29.90,West,270,0.7,4.0,62,0.00,,,0.01,WUHU216HW,2013-09-03 01:40:00,
2013-09-02 18:45:00,74.3,60.5,29.90,SW,225,2.5,2.9,62,0.00,,,0.01,WUHU216HW,2013-09-03 01:45:00,
2013-09-02 18:50:00,74.5,60.2,29.91,SE,135,0.9,4.0,61,0.00,,,0.01,WUHU216HW,2013-09-03 01:50:00,
2013-09-02 18:55:00,74.7,60.4,29.90,East,90,2.9,4.0,61,0.00,,,0.01,WUHU216HW,2013-09-03 01:55:00,
2013-09-02 19:00:00,74.9,60.6,29.90,East,90,3.4,3.4,61,0.00,,,0.01,WUHU216HW,2013-09-03 02:00:00,
2013-09-02 19:05:00,74.9,60.1,29.90,ESE,113,3.1,4.9,60,0.00,,,0.01,WUHU216HW,2013-09-03 02:05:00,
2013-09-02 19:10:00,74.9,60.1,29.90,East,90,1.8,4.9,60,0.00,,,0.01,WUHU216HW,2013-09-03 02:10:00,
2013-09-02 19:15:00,74.9,60.1,29.90,East,90,2.5,4.3,60,0.00,,,0.01,WUHU216HW,2013-09-03 02:15:00,
2013-09-02 19:20:00,74.9,59.6,29.90,NE,45,1.1,2.5,59,0.00,,,0.01,WUHU216HW,2013-09-03 02:20:00,
2013-09-02 19:25:00,74.9,59.6,29.90,NNW,338,0.7,1.8,59,0.00,,,0.01,WUHU216HW,2013-09-03 02:25:00,
2013-09-02 19:30:00,74.9,59.6,29.90,NNE,23,1.3,1.3,59,0.00,,,0.01,WUHU216HW,2013-09-03 02:30:00,
2013-09-02 19:35:00,74.9,59.6,29.90,ESE,113,1.6,1.6,59,0.00,,,0.01,WUHU216HW,2013-09-03 02:35:00,
2013-09-02 19:40:00,74.9,59.6,29.90,NE,45,1.3,1.8,59,0.00,,,0.01,WUHU216HW,2013-09-03 02:40:00,
2013-09-02 19:45:00,74.7,59.0,29.90,SW,225,1.1,1.8,58,0.00,,,0.01,WUHU216HW,2013-09-03 02:45:00,
2013-09-02 19:50:00,74.5,58.8,29.90,SE,135,1.1,2.7,58,0.00,,,0.01,WUHU216HW,2013-09-03 02:50:00,
2013-09-02 19:55:00,74.5,58.8,29.90,SE,135,0.7,2.7,58,0.00,,,0.01,WUHU216HW,2013-09-03 02:55:00,
2013-09-02 20:00:00,74.5,58.8,29.90,NW,315,1.3,1.8,58,0.00,,,0.01,WUHU216HW,2013-09-03 03:00:00,
2013-09-02 20:05:00,74.3,58.6,29.90,NNW,338,1.1,1.3,58,0.00,,,0.01,WUHU216HW,2013-09-03 03:05:00,
2013-09-02 20:10:00,74.2,58.4,29.90,East,90,1.3,1.8,58,0.00,,,0.01,WUHU216HW,2013-09-03 03:10:00,
2013-09-02 20:15:00,74.2,58.4,29.90,NNE,23,2.0,2.5,58,0.00,,,0.01,WUHU216HW,2013-09-03 03:15:00,
2013-09-02 20:20:00,74.0,58.2,29.90,NNE,23,1.1,2.5,58,0.00,,,0.01,WUHU216HW,2013-09-03 03:20:00,
2013-09-02 20:25:00,73.8,58.1,29.90,NNE,23,0.7,1.8,58,0.00,,,0.01,WUHU216HW,2013-09-03 03:25:00,
2013-09-02 20:30:00,73.6,57.9,29.90,SE,135,0.4,1.3,58,0.00,,,0.01,WUHU216HW,2013-09-03 03:30:00,
2013-09-02 20:35:00,73.6,57.9,29.90,SE,135,0.9,1.6,58,0.00,,,0.01,WUHU216HW,2013-09-03 03:35:00,
2013-09-02 20:40:00,73.4,57.7,29.90,ESE,113,1.1,1.6,58,0.00,,,0.01,WUHU216HW,2013-09-03 03:40:00,
2013-09-02 20:45:00,73.3,58.1,29.90,NE,45,1.1,1.3,59,0.00,,,0.01,WUHU216HW,2013-09-03 03:45:00,
2013-09-02 20:50:00,73.1,57.9,29.91,SSW,203,0.0,1.3,59,0.00,,,0.01,WUHU216HW,2013-09-03 03:50:00,
2013-09-02 20:55:00,73.1,57.9,29.91,SW,225,1.8,2.5,59,0.00,,,0.01,WUHU216HW,2013-09-03 03:55:00,
2013-09-02 21:00:00,72.9,57.7,29.91,West,270,1.8,2.5,59,0.00,,,0.01,WUHU216HW,2013-09-03 04:00:00,
2013-09-02 21:05:00,72.7,57.5,29.90,NNW,338,0.0,2.2,59,0.00,,,0.01,WUHU216HW,2013-09-03 04:05:00,
2013-09-02 21:10:00,72.5,57.3,29.91,NNW,338,0.0,0.9,59,0.00,,,0.01,WUHU216HW,2013-09-03 04:10:00,
2013-09-02 21:15:00,72.4,57.3,29.91,NNW,338,0.0,0.4,59,0.00,,,0.01,WUHU216HW,2013-09-03 04:15:00,
2013-09-02 21:20:00,72.2,57.1,29.91,NNW,338,0.0,0.0,59,0.00,,,0.01,WUHU216HW,2013-09-03 04:20:00,
2013-09-02 21:25:00,72.0,56.9,29.91,NNW,338,0.0,0.0,59,0.00,,,0.01,WUHU216HW,2013-09-03 04:25:00,
2013-09-02 21:30:00,71.8,56.7,29.91,West,270,0.9,0.9,59,0.00,,,0.01,WUHU216HW,2013-09-03 04:30:00,
2013-09-02 21:35:00,71.6,56.5,29.92,East,90,1.3,2.0,59,0.00,,,0.01,WUHU216HW,2013-09-03 04:35:00,
2013-09-02 21:40:00,71.5,56.4,29.92,ENE,68,1.6,2.0,59,0.00,,,0.01,WUHU216HW,2013-09-03 04:40:00,
2013-09-02 21:45:00,71.3,56.7,29.92,ENE,68,0.4,1.6,60,0.00,,,0.01,WUHU216HW,2013-09-03 04:45:00,
2013-09-02 21:50:00,71.3,56.7,29.92,ENE,68,0.0,1.6,60,0.00,,,0.01,WUHU216HW,2013-09-03 04:50:00,
2013-09-02 21:55:00,71.1,56.6,29.92,ENE,68,0.9,0.9,60,0.00,,,0.01,WUHU216HW,2013-09-03 04:55:00,
2013-09-02 22:00:00,70.9,55.9,29.92,South,180,0.7,0.9,59,0.00,,,0.01,WUHU216HW,2013-09-03 05:00:00,
2013-09-02 22:05:00,70.7,55.7,29.92,SE,135,0.9,1.3,59,0.00,,,0.01,WUHU216HW,2013-09-03 05:05:00,
2013-09-02 22:10:00,70.6,55.6,29.92,SE,135,0.7,1.3,59,0.00,,,0.01,WUHU216HW,2013-09-03 05:10:00,
2013-09-02 22:15:00,70.4,55.5,29.93,SE,135,0.0,0.9,59,0.00,,,0.01,WUHU216HW,2013-09-03 05:15:00,
2013-09-02 22:20:00,70.4,55.5,29.92,East,90,1.6,1.6,59,0.00,,,0.01,WUHU216HW,2013-09-03 05:20:00,
2013-09-02 22:25:00,70.2,55.3,29.92,ENE,68,0.9,1.6,59,0.00,,,0.01,WUHU216HW,2013-09-03 05:25:00,
2013-09-02 22:30:00,70.0,55.6,29.93,ENE,68,0.0,1.3,60,0.00,,,0.01,WUHU216HW,2013-09-03 05:30:00,
2013-09-02 22:35:00,69.8,55.4,29.92,WSW,248,0.0,0.7,60,0.00,,,0.01,WUHU216HW,2013-09-03 05:35:00,
2013-09-02 22:40:00,69.7,55.3,29.93,WSW,248,0.0,0.4,60,0.00,,,0.01,WUHU216HW,2013-09-03 05:40:00,
2013-09-02 22:45:00,69.5,55.1,29.93,South,180,0.0,1.3,60,0.00,,,0.01,WUHU216HW,2013-09-03 05:45:00,
2013-09-02 22:50:00,69.5,55.1,29.93,West,270,0.4,1.8,60,0.00,,,0.01,WUHU216HW,2013-09-03 05:50:00,
2013-09-02 22:55:00,69.3,54.9,29.93,SW,225,1.8,1.8,60,0.00,,,0.01,WUHU216HW,2013-09-03 05:55:00,
2013-09-02 23:00:00,69.1,54.7,29.93,SW,225,0.0,1.8,60,0.00,,,0.01,WUHU216HW,2013-09-03 06:00:00,
2013-09-02 23:05:00,69.1,54.7,29.93,SSE,158,0.7,1.1,60,0.00,,,0.01,WUHU216HW,2013-09-03 06:05:00,
2013-09-02 23:10:00,68.8,54.8,29.93,SSW,203,0.4,1.1,61,0.00,,,0.01,WUHU216HW,2013-09-03 06:10:00,
2013-09-02 23:15:00,68.8,54.8,29.93,SE,135,1.6,1.8,61,0.00,,,0.01,WUHU216HW,2013-09-03 06:15:00,
2013-09-02 23:20:00,68.6,54.6,29.94,SSW,203,0.0,1.8,61,0.00,,,0.01,WUHU216HW,2013-09-03 06:20:00,
2013-09-02 23:25:00,68.4,54.5,29.94,SE,135,0.4,1.1,61,0.00,,,0.01,WUHU216HW,2013-09-03 06:25:00,
2013-09-02 23:30:00,68.4,54.5,29.94,SE,135,0.0,1.1,61,0.00,,,0.01,WUHU216HW,2013-09-03 06:30:00,
2013-09-02 23:35:00,68.2,54.3,29.94,SSE,158,0.0,0.9,61,0.00,,,0.01,WUHU216HW,2013-09-03 06:35:00,
2013-09-02 23:41:00,68.0,54.1,29.94,East,90,1.3,1.3,61,0.00,,,0.01,WUHU216HW,2013-09-03 06:41:00,
2013-09-02 23:46:00,68.0,54.6,29.94,ENE,68,0.2,1.3,62,0.00,,,0.01,WUHU216HW,2013-09-03 06:46:00,
2013-09-02 23:51:00,67.9,54.4,29.94,ENE,68,1.3,1.3,62,0.00,,,0.01,WUHU216HW,2013-09-03 06:51:00,
2013-09-02 23:56:00,67.7,54.2,29.94,ENE,68,1.1,1.6,62,0.00,,,0.01,WUHU216HW,2013-09-03 06:56:00,